Time;durP1;ratioP1;P1;durP2;ratioP2;P2;SDS_P1;SDS_P2;PMS_P1;PMS_P2;Temp;Humidity;BMP_temperature;BMP_pressure;BME280_temperature;BME280_humidity;BME280_pressure;Samples;Min_cycle;Max_cycle;Signal;HPM_P1;HPM_P2
2023/06/12 00:00:54;;;;;;;276.77;267.47;;;18.80;99.90;;;;;;4999892;28;20648;-87
2023/06/12 00:03:24;;;;;;;279.37;270.90;;;18.90;99.90;;;;;;5013723;28;20290;-86
2023/06/12 00:05:50;;;;;;;270.80;262.43;;;18.80;99.90;;;;;;4996918;28;20329;-85
2023/06/12 00:08:17;;;;;;;272.07;263.93;;;18.70;99.90;;;;;;5014581;28;21084;-87
2023/06/12 00:10:44;;;;;;;271.03;262.40;;;18.60;99.90;;;;;;4998016;28;20191;-85
2023/06/12 00:13:11;;;;;;;271.37;263.60;;;18.60;99.90;;;;;;4998992;28;20749;-87
2023/06/12 00:15:37;;;;;;;267.77;259.87;;;18.50;99.90;;;;;;5016835;28;20445;-86
2023/06/12 00:18:04;;;;;;;270.57;262.77;;;18.50;99.90;;;;;;5013565;28;20245;-87
2023/06/12 00:20:31;;;;;;;276.50;268.53;;;18.50;99.90;;;;;;5012950;28;20190;-87
2023/06/12 00:22:57;;;;;;;261.47;253.93;;;18.50;99.90;;;;;;5013418;28;20260;-87
2023/06/12 00:25:23;;;;;;;272.30;264.53;;;18.40;99.90;;;;;;5015283;28;20195;-88
2023/06/12 00:27:48;;;;;;;266.10;258.33;;;18.40;99.90;;;;;;5015019;28;20195;-86
2023/06/12 00:30:14;;;;;;;263.23;255.63;;;18.30;99.90;;;;;;5013687;28;20219;-88
2023/06/12 00:32:40;;;;;;;272.73;264.80;;;18.30;99.90;;;;;;5000913;28;20313;-86
2023/06/12 00:35:06;;;;;;;275.87;267.97;;;18.30;99.90;;;;;;5016737;28;20237;-86
2023/06/12 00:37:32;;;;;;;257.47;250.07;;;18.30;99.90;;;;;;5001398;28;20220;-86
2023/06/12 00:39:59;;;;;;;272.23;264.30;;;18.20;99.90;;;;;;5015938;28;20273;-86
2023/06/12 00:42:33;;;;;;;274.73;266.73;;;18.20;99.90;;;;;;5019653;28;20179;-86
2023/06/12 00:44:59;;;;;;;272.70;264.90;;;18.20;99.90;;;;;;5014924;28;21044;-86
2023/06/12 00:47:25;;;;;;;265.53;257.50;;;18.10;99.90;;;;;;5019179;28;20198;-87
2023/06/12 00:49:52;;;;;;;273.73;266.03;;;18.00;99.90;;;;;;4999959;28;20342;-86
2023/06/12 00:52:19;;;;;;;261.03;253.30;;;17.90;99.90;;;;;;5016176;28;20191;-87
2023/06/12 00:54:46;;;;;;;267.23;259.37;;;17.90;99.90;;;;;;5017237;28;20197;-87
2023/06/12 00:57:12;;;;;;;264.23;256.67;;;17.80;99.90;;;;;;4984956;28;20302;-85
2023/06/12 00:59:38;;;;;;;268.00;260.37;;;17.80;99.90;;;;;;5017479;28;20321;-85
2023/06/12 01:02:06;;;;;;;254.93;247.43;;;17.80;99.90;;;;;;5000442;28;20195;-87
2023/06/12 01:04:33;;;;;;;270.47;262.80;;;17.80;99.90;;;;;;5015293;28;20202;-86
2023/06/12 01:07:12;;;;;;;262.07;254.40;;;17.80;99.90;;;;;;5001101;28;20566;-87
2023/06/12 01:09:55;;;;;;;259.20;251.70;;;17.80;99.90;;;;;;5017393;28;20186;-87
2023/06/12 01:12:22;;;;;;;256.77;249.17;;;17.80;99.90;;;;;;5017525;28;20183;-87
2023/06/12 01:14:48;;;;;;;273.13;265.40;;;17.80;99.90;;;;;;4985726;28;20198;-85
2023/06/12 01:17:16;;;;;;;252.53;245.27;;;17.80;99.90;;;;;;4990184;28;20239;-88
2023/06/12 01:19:42;;;;;;;272.30;264.40;;;17.80;99.90;;;;;;4999484;28;20672;-88
2023/06/12 01:22:12;;;;;;;253.73;246.37;;;17.60;99.90;;;;;;5014770;28;20187;-86
2023/06/12 01:25:32;;;;;;;264.27;256.73;;;17.50;99.90;;;;;;5017658;28;20248;-85
2023/06/12 01:28:01;;;;;;;259.03;250.73;;;17.40;99.90;;;;;;4968172;28;20728;-85
2023/06/12 01:30:47;;;;;;;253.07;245.50;;;17.30;99.90;;;;;;5013488;28;20203;-86
2023/06/12 01:33:21;;;;;;;254.97;247.77;;;17.10;99.90;;;;;;5011547;28;20183;-87
2023/06/12 01:35:50;;;;;;;258.00;250.50;;;17.10;99.90;;;;;;5013639;28;20245;-87
2023/06/12 01:38:23;;;;;;;252.33;245.03;;;17.00;99.90;;;;;;5014409;28;20253;-86
2023/06/12 01:40:50;;;;;;;258.00;250.30;;;16.80;99.90;;;;;;4996371;28;20213;-87
2023/06/12 01:43:16;;;;;;;252.53;245.00;;;16.70;99.90;;;;;;4997634;28;20195;-87
2023/06/12 01:45:42;;;;;;;265.80;257.97;;;16.60;99.90;;;;;;5014253;28;20194;-87
2023/06/12 01:48:08;;;;;;;251.07;243.67;;;16.60;99.90;;;;;;5015322;28;20190;-86
2023/06/12 01:50:34;;;;;;;262.23;254.47;;;16.60;99.90;;;;;;5000324;28;20207;-86
2023/06/12 01:53:01;;;;;;;257.43;250.03;;;16.60;99.90;;;;;;5017229;28;20206;-88
2023/06/12 01:55:27;;;;;;;261.17;253.57;;;16.60;99.90;;;;;;5000065;28;20203;-88
2023/06/12 01:57:53;;;;;;;252.40;245.10;;;16.60;99.90;;;;;;5018679;28;20202;-85
2023/06/12 02:00:19;;;;;;;256.63;249.13;;;16.50;99.90;;;;;;5014793;28;20282;-90
2023/06/12 02:02:45;;;;;;;253.13;245.77;;;16.40;99.90;;;;;;4999966;28;20199;-85
2023/06/12 02:05:11;;;;;;;255.07;247.63;;;16.30;99.90;;;;;;4998326;28;20191;-86
2023/06/12 02:07:37;;;;;;;257.40;249.83;;;16.30;99.90;;;;;;5017473;28;20207;-86
2023/06/12 02:10:03;;;;;;;260.53;253.03;;;16.20;99.90;;;;;;4998938;28;20747;-86
2023/06/12 02:12:30;;;;;;;253.13;245.87;;;16.20;99.90;;;;;;4999652;28;20183;-85
2023/06/12 02:14:59;;;;;;;250.23;243.17;;;16.10;99.90;;;;;;5000453;28;20213;-87
2023/06/12 02:17:24;;;;;;;249.53;242.33;;;16.00;99.90;;;;;;4994799;28;20917;-86
2023/06/12 02:19:50;;;;;;;239.30;232.30;;;16.00;99.90;;;;;;4997214;28;20204;-86
2023/06/12 02:22:16;;;;;;;242.63;235.63;;;15.90;99.90;;;;;;4996216;28;20222;-87
2023/06/12 02:24:42;;;;;;;239.97;233.13;;;15.90;99.90;;;;;;4998195;28;20199;-87
2023/06/12 02:27:07;;;;;;;234.97;228.07;;;15.80;99.90;;;;;;4994783;28;20672;-86
2023/06/12 02:29:33;;;;;;;230.43;223.70;;;15.80;99.90;;;;;;4994025;28;20202;-84
2023/06/12 02:31:59;;;;;;;223.03;216.20;;;15.70;99.90;;;;;;4979771;28;20195;-86
2023/06/12 02:34:25;;;;;;;233.90;226.97;;;15.70;99.90;;;;;;4994137;28;20573;-86
2023/06/12 02:36:52;;;;;;;201.57;195.60;;;15.70;99.90;;;;;;4996548;28;20218;-87
2023/06/12 02:39:17;;;;;;;199.77;193.87;;;15.70;99.90;;;;;;5012202;28;21374;-87
2023/06/12 02:41:48;;;;;;;204.37;198.37;;;15.60;99.90;;;;;;4993162;28;20189;-87
2023/06/12 02:44:14;;;;;;;190.73;185.10;;;15.60;99.90;;;;;;4998106;28;20211;-87
2023/06/12 02:47:00;;;;;;;193.80;188.03;;;15.50;99.90;;;;;;4996232;28;20196;-85
2023/06/12 02:49:28;;;;;;;182.47;177.07;;;15.50;99.90;;;;;;4987171;28;20199;-86
2023/06/12 02:51:54;;;;;;;180.20;174.70;;;15.40;99.90;;;;;;5002658;28;20179;-85
2023/06/12 02:54:22;;;;;;;179.07;173.63;;;15.30;99.90;;;;;;5011302;28;20282;-86
2023/06/12 02:56:48;;;;;;;168.33;163.33;;;15.10;99.90;;;;;;4992972;28;20207;-86
2023/06/12 02:59:19;;;;;;;160.47;155.53;;;15.00;99.90;;;;;;4994627;28;20255;-85
2023/06/12 03:01:45;;;;;;;164.50;159.50;;;14.80;99.90;;;;;;4986699;28;20926;-87
2023/06/12 03:04:18;;;;;;;165.73;160.73;;;14.60;99.90;;;;;;4996584;28;20183;-87
2023/06/12 03:06:51;;;;;;;172.63;167.10;;;14.50;99.90;;;;;;4996373;28;20610;-87
2023/06/12 03:09:18;;;;;;;154.87;149.83;;;14.50;99.90;;;;;;5011536;28;20238;-88
2023/06/12 03:11:44;;;;;;;175.60;169.43;;;14.60;99.90;;;;;;4995347;28;20196;-87
2023/06/12 03:14:12;;;;;;;181.40;176.00;;;14.50;99.90;;;;;;4992823;28;20211;-87
2023/06/12 03:16:39;;;;;;;177.57;171.97;;;14.50;99.90;;;;;;4993245;28;20239;-86
2023/06/12 03:19:05;;;;;;;196.10;190.23;;;14.50;99.90;;;;;;5015708;28;20198;-87
2023/06/12 03:21:31;;;;;;;199.03;193.23;;;14.60;99.90;;;;;;5015605;28;20193;-88
2023/06/12 03:23:57;;;;;;;203.03;197.07;;;14.60;99.90;;;;;;4998621;28;20195;-86
2023/06/12 03:26:23;;;;;;;195.87;189.83;;;14.70;99.90;;;;;;4996189;28;21064;-87
2023/06/12 03:28:49;;;;;;;179.90;174.43;;;14.70;99.90;;;;;;4998485;28;20224;-87
2023/06/12 03:31:15;;;;;;;181.37;175.77;;;14.80;99.90;;;;;;4997680;28;21029;-88
2023/06/12 03:33:40;;;;;;;187.90;182.40;;;14.80;99.90;;;;;;4999379;28;20210;-88
2023/06/12 03:36:07;;;;;;;166.00;160.60;;;14.80;99.90;;;;;;5000227;28;20183;-88
2023/06/12 03:38:33;;;;;;;181.63;175.73;;;14.80;99.90;;;;;;5013147;28;20695;-88
2023/06/12 03:40:59;;;;;;;164.83;159.87;;;14.80;99.90;;;;;;4982274;28;20197;-86
2023/06/12 03:43:24;;;;;;;162.13;157.17;;;14.80;99.90;;;;;;5001544;28;20191;-85
2023/06/12 03:45:50;;;;;;;159.43;154.47;;;14.80;99.90;;;;;;5003393;28;20186;-87
2023/06/12 03:48:16;;;;;;;151.37;145.63;;;14.90;99.90;;;;;;5001187;28;20195;-85
2023/06/12 03:50:42;;;;;;;154.93;150.00;;;14.90;99.90;;;;;;5017755;28;20191;-85
2023/06/12 03:53:07;;;;;;;143.67;138.70;;;14.90;99.90;;;;;;5000401;28;20605;-88
2023/06/12 03:55:34;;;;;;;149.40;144.90;;;14.90;99.90;;;;;;4999673;28;20195;-85
2023/06/12 03:58:01;;;;;;;152.23;147.60;;;14.90;99.90;;;;;;5000741;28;20609;-88
2023/06/12 04:00:27;;;;;;;146.67;142.07;;;15.00;99.90;;;;;;4984918;28;20191;-87
2023/06/12 04:02:54;;;;;;;146.90;142.37;;;15.00;99.90;;;;;;4997133;28;20201;-87
2023/06/12 04:05:20;;;;;;;141.80;137.40;;;15.10;99.90;;;;;;4979748;28;20195;-89
2023/06/12 04:07:46;;;;;;;140.87;136.37;;;15.10;99.90;;;;;;5000602;28;20195;-86
2023/06/12 04:10:12;;;;;;;139.27;134.87;;;15.10;99.90;;;;;;4997264;28;20592;-87
2023/06/12 04:12:38;;;;;;;148.30;143.70;;;15.20;99.90;;;;;;5014507;28;20218;-87
2023/06/12 04:15:04;;;;;;;145.10;140.60;;;15.20;99.90;;;;;;4996153;28;20980;-86
2023/06/12 04:17:30;;;;;;;151.97;146.97;;;15.30;99.90;;;;;;4991427;28;20305;-85
2023/06/12 04:20:00;;;;;;;148.50;143.90;;;15.40;99.90;;;;;;4993709;28;20196;-88
2023/06/12 04:22:27;;;;;;;153.37;148.60;;;15.50;99.90;;;;;;4979599;28;20202;-86
2023/06/12 04:24:53;;;;;;;146.47;141.70;;;15.60;99.90;;;;;;5000342;28;20195;-85
2023/06/12 04:27:19;;;;;;;145.07;140.37;;;15.70;99.90;;;;;;5012181;28;20206;-88
2023/06/12 04:29:46;;;;;;;145.13;140.43;;;15.80;99.90;;;;;;4997162;28;20187;-88
2023/06/12 04:32:13;;;;;;;148.47;143.90;;;15.80;99.90;;;;;;5011726;28;20194;-88
2023/06/12 04:34:43;;;;;;;146.23;141.63;;;15.90;99.90;;;;;;4998264;28;20191;-86
2023/06/12 04:37:13;;;;;;;147.97;143.17;;;15.90;99.90;;;;;;5012412;28;20222;-88
2023/06/12 04:39:43;;;;;;;150.00;145.13;;;15.90;99.90;;;;;;4997156;28;20202;-87
2023/06/12 04:42:10;;;;;;;153.23;148.40;;;16.00;99.90;;;;;;4991684;28;20215;-88
2023/06/12 04:44:39;;;;;;;153.87;148.83;;;16.00;99.90;;;;;;5013479;28;20178;-87
2023/06/12 04:47:08;;;;;;;144.07;139.60;;;16.10;99.90;;;;;;5010588;28;20195;-87
2023/06/12 04:49:35;;;;;;;155.03;150.23;;;16.10;99.90;;;;;;5010245;28;20240;-88
2023/06/12 04:52:03;;;;;;;157.00;151.93;;;16.20;99.90;;;;;;4998204;28;20278;-86
2023/06/12 04:54:35;;;;;;;158.80;153.90;;;16.30;99.90;;;;;;5016234;28;20690;-87
2023/06/12 04:57:07;;;;;;;159.90;155.00;;;16.40;99.90;;;;;;5016961;28;20227;-87
2023/06/12 04:59:37;;;;;;;166.17;160.33;;;16.50;99.90;;;;;;5017875;28;20277;-89
2023/06/12 05:02:05;;;;;;;159.43;154.60;;;16.60;99.90;;;;;;5014426;28;20194;-88
2023/06/12 05:04:30;;;;;;;170.10;164.50;;;16.70;99.90;;;;;;5015641;28;20227;-87
2023/06/12 05:06:57;;;;;;;172.90;167.63;;;16.80;99.90;;;;;;5013111;28;20227;-88
2023/06/12 05:09:23;;;;;;;175.90;170.63;;;16.90;99.90;;;;;;4983799;28;20193;-86
2023/06/12 05:11:49;;;;;;;168.60;163.23;;;17.10;99.90;;;;;;4999368;28;20184;-86
2023/06/12 05:14:15;;;;;;;177.80;172.10;;;17.40;99.90;;;;;;5015695;28;20191;-86
2023/06/12 05:16:40;;;;;;;188.27;182.57;;;18.70;99.90;;;;;;4996324;28;20292;-87
2023/06/12 05:19:09;;;;;;;191.40;185.40;;;20.50;99.90;;;;;;4994997;28;20210;-87
2023/06/12 05:21:35;;;;;;;178.83;173.37;;;22.30;99.90;;;;;;4982534;28;20680;-86
2023/06/12 05:24:01;;;;;;;176.97;171.47;;;22.10;99.90;;;;;;5000859;28;20197;-86
2023/06/12 05:26:27;;;;;;;205.27;198.97;;;21.30;99.90;;;;;;4999830;28;20187;-86
2023/06/12 05:28:52;;;;;;;261.97;254.50;;;22.10;99.90;;;;;;4998610;28;21062;-86
2023/06/12 05:31:18;;;;;;;289.27;280.33;;;23.30;99.90;;;;;;4997715;28;20540;-87
2023/06/12 05:33:44;;;;;;;295.77;287.07;;;24.20;99.90;;;;;;4996404;28;20707;-87
2023/06/12 05:36:10;;;;;;;263.63;255.80;;;24.80;99.90;;;;;;4994434;28;20660;-88
2023/06/12 05:38:37;;;;;;;235.77;228.93;;;25.10;99.90;;;;;;4997008;28;20226;-88
2023/06/12 05:41:03;;;;;;;182.63;177.13;;;25.90;99.90;;;;;;4996598;28;20218;-87
2023/06/12 05:43:28;;;;;;;166.40;161.33;;;25.90;99.90;;;;;;4997734;28;21068;-88
2023/06/12 05:45:54;;;;;;;134.07;129.60;;;26.30;99.90;;;;;;4993890;28;20306;-88
2023/06/12 05:48:20;;;;;;;101.47;98.25;;;25.80;99.90;;;;;;4986731;28;20623;-89
2023/06/12 05:50:46;;;;;;;93.03;90.03;;;25.10;99.90;;;;;;4994188;28;20636;-86
2023/06/12 05:53:11;;;;;;;89.22;86.22;;;25.40;99.90;;;;;;4977973;28;20194;-89
2023/06/12 05:55:37;;;;;;;77.95;75.22;;;25.50;99.90;;;;;;5012213;28;20183;-89
2023/06/12 05:58:03;;;;;;;75.45;72.95;;;25.50;99.90;;;;;;4992318;28;20233;-90
2023/06/12 06:00:28;;;;;;;74.25;71.45;;;26.00;99.90;;;;;;4974823;28;20195;-88
2023/06/12 06:02:54;;;;;;;76.88;74.25;;;26.40;99.90;;;;;;4983858;28;20176;-88
2023/06/12 06:05:20;;;;;;;77.85;74.85;;;26.90;99.90;;;;;;4973731;28;20198;-87
2023/06/12 06:07:50;;;;;;;96.05;92.88;;;26.80;99.90;;;;;;5009059;28;20197;-87
2023/06/12 06:10:16;;;;;;;86.65;83.70;;;26.40;99.90;;;;;;4980912;28;20374;-87
2023/06/12 06:12:41;;;;;;;94.93;91.95;;;26.80;99.90;;;;;;4996623;28;20656;-88
2023/06/12 06:15:08;;;;;;;101.75;97.53;;;27.00;99.90;;;;;;4994699;28;20187;-90
2023/06/12 06:17:34;;;;;;;96.75;93.50;;;26.20;99.90;;;;;;4961810;28;20246;-90
2023/06/12 06:20:00;;;;;;;98.20;94.88;;;26.70;99.90;;;;;;5012566;28;20196;-89
2023/06/12 06:22:26;;;;;;;89.43;86.40;;;26.60;99.90;;;;;;5001143;28;20237;-90
2023/06/12 06:24:52;;;;;;;88.70;85.70;;;27.00;99.90;;;;;;5010031;28;20184;-88
2023/06/12 06:27:18;;;;;;;87.65;84.65;;;27.10;99.90;;;;;;5016120;28;20647;-88
2023/06/12 06:29:44;;;;;;;77.97;75.40;;;27.00;99.90;;;;;;4995343;28;20191;-89
2023/06/12 06:32:09;;;;;;;74.18;71.72;;;27.20;99.90;;;;;;5014039;28;20192;-88
2023/06/12 06:34:35;;;;;;;75.28;72.53;;;27.40;99.90;;;;;;4966066;28;20195;-90
2023/06/12 06:37:01;;;;;;;71.95;69.30;;;27.20;99.90;;;;;;4998487;28;20207;-88
2023/06/12 06:39:27;;;;;;;71.00;68.68;;;26.90;99.90;;;;;;4997463;28;20256;-89
2023/06/12 06:41:53;;;;;;;73.65;70.88;;;26.90;99.90;;;;;;5012112;28;20191;-90
2023/06/12 06:44:19;;;;;;;72.78;70.35;;;27.50;99.90;;;;;;4982468;28;20194;-86
2023/06/12 06:46:44;;;;;;;66.25;63.85;;;27.40;99.90;;;;;;4996887;28;20202;-88
2023/06/12 06:49:10;;;;;;;64.70;61.92;;;27.50;99.90;;;;;;5010921;28;20310;-88
2023/06/12 06:51:36;;;;;;;66.78;64.13;;;27.50;99.90;;;;;;4997061;28;20711;-89
2023/06/12 06:54:02;;;;;;;60.53;58.22;;;27.30;99.90;;;;;;5014811;28;20636;-89
2023/06/12 06:56:29;;;;;;;63.67;61.50;;;27.60;99.90;;;;;;5014319;28;20198;-88
2023/06/12 06:58:55;;;;;;;61.58;59.33;;;28.00;99.90;;;;;;4979760;28;20262;-87
2023/06/12 07:01:21;;;;;;;62.58;60.15;;;28.10;99.90;;;;;;4991354;28;20183;-90
2023/06/12 07:03:47;;;;;;;57.15;55.00;;;28.90;99.90;;;;;;4995450;28;20211;-89
2023/06/12 07:06:12;;;;;;;62.08;59.78;;;29.80;99.90;;;;;;4966094;28;20283;-89
2023/06/12 07:08:38;;;;;;;64.47;61.97;;;30.00;99.90;;;;;;4993250;28;20195;-89
2023/06/12 07:11:04;;;;;;;65.38;62.95;;;29.70;99.90;;;;;;4974286;28;20210;-88
2023/06/12 07:13:30;;;;;;;64.63;62.20;;;29.30;99.90;;;;;;4992700;28;20199;-89
2023/06/12 07:15:55;;;;;;;64.47;62.15;;;29.10;99.90;;;;;;4996661;28;20191;-89
2023/06/12 07:18:21;;;;;;;73.00;70.57;;;29.20;99.90;;;;;;4996819;28;20255;-88
2023/06/12 07:20:47;;;;;;;80.55;77.80;;;29.30;99.90;;;;;;4981042;28;20230;-89
2023/06/12 07:23:13;;;;;;;78.53;75.63;;;30.00;99.90;;;;;;4998732;28;20709;-88
2023/06/12 07:25:39;;;;;;;89.82;86.80;;;30.40;99.90;;;;;;5001934;28;20244;-89
2023/06/12 07:28:05;;;;;;;88.95;85.78;;;30.70;99.90;;;;;;5038620;28;20234;-89
2023/06/12 07:30:30;;;;;;;98.57;95.35;;;30.80;99.90;;;;;;5021651;28;20229;-89
2023/06/12 07:32:56;;;;;;;91.00;87.85;;;30.60;99.90;;;;;;5022590;28;20222;-89
2023/06/12 07:35:22;;;;;;;90.28;87.07;;;30.40;99.90;;;;;;5037398;28;20222;-89
2023/06/12 07:37:49;;;;;;;77.70;74.88;;;31.10;99.90;;;;;;5022036;28;20237;-89
2023/06/12 07:40:15;;;;;;;79.10;76.38;;;31.10;99.90;;;;;;5054154;28;20194;-89
2023/06/12 07:42:42;;;;;;;80.90;77.75;;;31.20;99.90;;;;;;5038279;28;20230;-89
2023/06/12 07:45:09;;;;;;;81.72;78.63;;;30.70;99.90;;;;;;5036162;28;20294;-88
2023/06/12 07:47:34;;;;;;;83.63;80.63;;;31.00;99.90;;;;;;5039481;28;20316;-88
2023/06/12 07:50:00;;;;;;;84.00;81.13;;;30.30;99.90;;;;;;5021397;28;20225;-90
2023/06/12 07:52:26;;;;;;;79.35;76.57;;;30.20;99.90;;;;;;5038089;28;20253;-88
2023/06/12 07:54:52;;;;;;;76.75;73.95;;;29.80;99.90;;;;;;5037743;28;20182;-88
2023/06/12 07:57:17;;;;;;;80.18;77.43;;;29.50;99.90;;;;;;5019106;28;20580;-88
2023/06/12 07:59:44;;;;;;;77.70;75.00;;;29.60;99.90;;;;;;5035657;28;20684;-88
2023/06/12 08:02:10;;;;;;;82.50;79.70;;;30.10;99.90;;;;;;5038283;28;20230;-89
2023/06/12 08:04:40;;;;;;;78.47;75.63;;;29.90;99.90;;;;;;5049317;28;20229;-90
2023/06/12 08:07:10;;;;;;;76.65;73.82;;;29.40;99.90;;;;;;5036118;28;20199;-90
2023/06/12 08:09:43;;;;;;;71.00;68.53;;;29.30;99.90;;;;;;5037634;28;20747;-90
2023/06/12 08:12:11;;;;;;;68.03;65.25;;;29.00;99.90;;;;;;5037495;28;20222;-89
2023/06/12 08:14:38;;;;;;;72.07;69.32;;;28.80;99.90;;;;;;5039199;28;20213;-87
2023/06/12 08:17:03;;;;;;;70.00;67.55;;;29.60;99.90;;;;;;5045908;28;20229;-90
2023/06/12 08:19:32;;;;;;;69.95;67.13;;;29.70;99.90;;;;;;5052627;28;20285;-90
2023/06/12 08:21:59;;;;;;;71.25;68.35;;;29.10;99.90;;;;;;5038767;28;20198;-89
2023/06/12 08:24:29;;;;;;;71.82;68.85;;;29.30;99.90;;;;;;5035848;28;20250;-89
2023/06/12 08:26:56;;;;;;;71.30;68.85;;;29.00;99.90;;;;;;5021465;28;20230;-90
2023/06/12 08:29:22;;;;;;;75.55;72.65;;;28.60;99.90;;;;;;5036436;28;20230;-89
2023/06/12 08:31:47;;;;;;;78.43;75.43;;;29.10;99.90;;;;;;5033903;28;20681;-91
2023/06/12 08:34:13;;;;;;;78.72;76.15;;;29.00;99.90;;;;;;5054227;28;20211;-89
2023/06/12 08:36:39;;;;;;;76.05;73.43;;;29.30;99.90;;;;;;5054000;28;20233;-91
2023/06/12 08:39:05;;;;;;;70.88;68.22;;;29.10;99.90;;;;;;5018370;28;20218;-92
2023/06/12 08:41:34;;;;;;;76.40;73.60;;;28.90;99.90;;;;;;5051266;28;20231;-90
2023/06/12 08:44:00;;;;;;;76.90;74.32;;;28.60;99.90;;;;;;5036887;28;20594;-90
2023/06/12 08:46:30;;;;;;;74.10;71.57;;;28.50;99.90;;;;;;5035983;28;20207;-87
2023/06/12 08:48:59;;;;;;;78.25;75.35;;;29.00;99.90;;;;;;5053118;28;20186;-90
2023/06/12 08:51:25;;;;;;;80.22;77.25;;;28.90;99.90;;;;;;5036075;28;20275;-89
2023/06/12 08:53:51;;;;;;;81.93;79.05;;;28.30;99.90;;;;;;5043684;28;20542;-91
2023/06/12 08:56:18;;;;;;;83.72;80.72;;;28.40;99.90;;;;;;5052895;28;20688;-89
2023/06/12 08:58:45;;;;;;;75.85;73.30;;;29.20;99.90;;;;;;5033168;28;20251;-89
2023/06/12 09:01:15;;;;;;;79.10;76.53;;;28.90;99.90;;;;;;5017545;28;20194;-91
2023/06/12 09:03:47;;;;;;;80.22;77.38;;;29.00;99.90;;;;;;5019180;28;20682;-89
2023/06/12 09:06:16;;;;;;;83.25;80.55;;;28.80;99.90;;;;;;5037361;28;20241;-89
2023/06/12 09:08:42;;;;;;;84.60;81.78;;;28.50;99.90;;;;;;5017630;28;20231;-90
2023/06/12 09:11:08;;;;;;;85.50;82.53;;;28.30;99.90;;;;;;5019682;28;20215;-89
2023/06/12 09:13:44;;;;;;;82.15;79.32;;;28.00;99.90;;;;;;5051269;28;21174;-88
2023/06/12 09:16:12;;;;;;;85.85;82.70;;;27.60;99.90;;;;;;5037465;28;20524;-90
2023/06/12 09:18:48;;;;;;;93.10;89.57;;;27.60;99.90;;;;;;5037046;28;20238;-88
2023/06/12 09:21:14;;;;;;;88.35;85.43;;;28.00;99.90;;;;;;5034921;28;20250;-88
2023/06/12 09:23:41;;;;;;;91.50;88.50;;;28.10;99.90;;;;;;5034524;28;20218;-89
2023/06/12 09:26:15;;;;;;;98.75;95.47;;;27.80;99.90;;;;;;5019341;28;20247;-89
2023/06/12 09:28:44;;;;;;;98.93;95.65;;;27.70;99.90;;;;;;5037111;28;20209;-89
2023/06/12 09:31:14;;;;;;;94.35;91.15;;;27.80;99.90;;;;;;5037876;28;20198;-90
2023/06/12 09:33:40;;;;;;;101.78;98.32;;;27.20;99.90;;;;;;5034623;28;20211;-91
2023/06/12 09:36:13;;;;;;;112.75;108.90;;;26.90;99.90;;;;;;5035104;28;20217;-89
2023/06/12 09:38:39;;;;;;;106.60;103.28;;;27.30;99.90;;;;;;5017629;28;20234;-88
2023/06/12 09:41:08;;;;;;;107.95;104.28;;;26.80;99.90;;;;;;5036199;28;20599;-90
2023/06/12 09:43:35;;;;;;;104.50;101.10;;;26.80;99.90;;;;;;5033101;28;20189;-90
2023/06/12 09:46:06;;;;;;;113.35;109.55;;;26.80;99.90;;;;;;5048919;28;20198;-91
2023/06/12 09:48:33;;;;;;;116.10;112.40;;;27.20;99.90;;;;;;5033443;28;20346;-89
2023/06/12 09:51:04;;;;;;;103.82;100.55;;;27.30;99.90;;;;;;5035908;28;20383;-89
2023/06/12 09:53:30;;;;;;;105.22;101.72;;;27.00;99.90;;;;;;5037341;28;20379;-90
2023/06/12 09:55:57;;;;;;;101.32;97.78;;;26.90;99.90;;;;;;5052773;28;20229;-89
2023/06/12 09:58:23;;;;;;;105.28;101.88;;;26.80;99.90;;;;;;5052687;28;20217;-88
2023/06/12 10:00:55;;;;;;;113.90;110.15;;;26.80;99.90;;;;;;5050784;28;20218;-89
2023/06/12 10:03:24;;;;;;;121.05;116.63;;;26.70;99.90;;;;;;5034107;28;20268;-88
2023/06/12 10:05:51;;;;;;;113.85;110.32;;;26.80;99.90;;;;;;5036473;28;20687;-89
2023/06/12 10:08:17;;;;;;;120.05;116.03;;;26.80;99.90;;;;;;5017103;28;20219;-89
2023/06/12 10:10:44;;;;;;;120.03;116.28;;;27.00;99.90;;;;;;5032833;28;20264;-88
2023/06/12 10:13:12;;;;;;;123.68;119.63;;;27.30;99.90;;;;;;5032297;28;20194;-88
2023/06/12 10:15:39;;;;;;;121.90;117.88;;;27.50;99.90;;;;;;5034510;28;20217;-89
2023/06/12 10:18:10;;;;;;;128.00;123.80;;;27.30;99.90;;;;;;5035834;28;20239;-90
2023/06/12 10:20:37;;;;;;;124.70;120.35;;;27.40;99.90;;;;;;5051074;28;21048;-90
2023/06/12 10:23:04;;;;;;;136.68;132.35;;;26.90;99.90;;;;;;5042590;28;20226;-87
2023/06/12 10:25:31;;;;;;;117.47;113.57;;;27.60;99.90;;;;;;5033475;28;20190;-89
2023/06/12 10:27:58;;;;;;;128.40;124.18;;;27.70;99.90;;;;;;5019800;28;20190;-87
2023/06/12 10:30:23;;;;;;;133.95;129.60;;;27.70;99.90;;;;;;5051454;28;20555;-89
2023/06/12 10:32:49;;;;;;;124.90;120.57;;;27.80;99.90;;;;;;5050221;28;20676;-87
2023/06/12 10:35:31;;;;;;;134.68;130.43;;;27.90;99.90;;;;;;5030810;28;20623;-88
2023/06/12 10:37:57;;;;;;;113.97;110.18;;;28.10;99.90;;;;;;5034668;28;20233;-86
2023/06/12 10:40:23;;;;;;;128.48;124.28;;;27.90;99.90;;;;;;5052671;28;20265;-87
2023/06/12 10:43:00;;;;;;;125.95;121.70;;;27.70;99.90;;;;;;5033049;28;20210;-87
2023/06/12 10:45:31;;;;;;;116.00;112.03;;;27.70;99.90;;;;;;5033858;28;20224;-89
2023/06/12 10:48:03;;;;;;;111.78;108.20;;;27.80;99.90;;;;;;5049652;28;20218;-88
2023/06/12 10:50:31;;;;;;;108.80;105.28;;;27.80;99.90;;;;;;5037557;28;20222;-88
2023/06/12 10:53:01;;;;;;;124.53;120.28;;;27.60;99.90;;;;;;5046215;28;20226;-88
2023/06/12 10:55:26;;;;;;;134.10;129.85;;;27.90;99.90;;;;;;5037826;28;20185;-87
2023/06/12 10:57:55;;;;;;;137.57;133.30;;;28.00;99.90;;;;;;5037862;28;20214;-89
2023/06/12 11:00:23;;;;;;;132.68;128.25;;;27.70;99.90;;;;;;5036767;28;20229;-88
2023/06/12 11:02:59;;;;;;;124.43;120.15;;;27.60;99.90;;;;;;5037729;28;20607;-86
2023/06/12 11:05:27;;;;;;;128.07;123.78;;;27.30;99.90;;;;;;5052832;28;20758;-87
2023/06/12 11:08:11;;;;;;;122.55;118.55;;;27.70;99.90;;;;;;5038204;28;20221;-87
2023/06/12 11:10:38;;;;;;;120.90;117.07;;;27.70;99.90;;;;;;5054953;28;20244;-88
2023/06/12 11:13:04;;;;;;;132.05;127.75;;;27.70;99.90;;;;;;5037848;28;20285;-91
2023/06/12 11:15:33;;;;;;;139.00;134.43;;;27.60;99.90;;;;;;5039479;28;20653;-88
2023/06/12 11:17:59;;;;;;;121.13;117.05;;;27.60;99.90;;;;;;5038086;28;20324;-89
2023/06/12 11:20:25;;;;;;;141.77;137.32;;;27.40;99.90;;;;;;5036419;28;20317;-88
2023/06/12 11:23:01;;;;;;;134.93;130.52;;;27.30;99.90;;;;;;5036958;28;20221;-87
2023/06/12 11:25:30;;;;;;;129.88;125.70;;;27.50;99.90;;;;;;5035316;28;20188;-87
2023/06/12 11:27:56;;;;;;;132.93;128.40;;;27.50;99.90;;;;;;5036945;28;20197;-87
2023/06/12 11:30:25;;;;;;;144.90;140.02;;;27.80;99.90;;;;;;5052667;28;20222;-90
2023/06/12 11:32:51;;;;;;;141.15;136.55;;;28.00;99.90;;;;;;5037986;28;20222;-88
2023/06/12 11:35:16;;;;;;;147.82;142.90;;;27.60;99.90;;;;;;5017358;28;20222;-87
2023/06/12 11:37:42;;;;;;;157.57;152.63;;;27.80;99.90;;;;;;5002592;28;20548;-87
2023/06/12 11:40:13;;;;;;;145.23;140.50;;;28.00;99.90;;;;;;5053439;28;20547;-87
2023/06/12 11:42:40;;;;;;;146.43;141.65;;;27.70;99.90;;;;;;5036110;28;20705;-85
2023/06/12 11:45:14;;;;;;;148.98;144.15;;;27.60;99.90;;;;;;5036703;28;20222;-88
2023/06/12 11:47:42;;;;;;;144.70;140.20;;;27.70;99.90;;;;;;5034903;28;21212;-89
2023/06/12 11:50:15;;;;;;;144.85;140.07;;;27.30;99.90;;;;;;5035662;28;20217;-89
2023/06/12 11:52:43;;;;;;;140.50;135.38;;;27.60;99.90;;;;;;5036414;28;20340;-87
2023/06/12 11:55:14;;;;;;;138.43;133.90;;;27.30;99.90;;;;;;5037392;28;20639;-88
2023/06/12 11:57:47;;;;;;;145.45;139.98;;;27.00;99.90;;;;;;5043613;28;20313;-87
2023/06/12 12:00:18;;;;;;;136.30;132.00;;;27.30;99.90;;;;;;5037047;28;20738;-88
2023/06/12 12:02:51;;;;;;;126.00;121.57;;;27.50;99.90;;;;;;5035774;28;20269;-88
2023/06/12 12:05:23;;;;;;;115.70;112.03;;;27.60;99.90;;;;;;5033885;28;20222;-87
2023/06/12 12:07:59;;;;;;;112.20;108.43;;;27.00;99.90;;;;;;5026936;28;20311;-87
2023/06/12 12:10:30;;;;;;;116.53;112.60;;;26.80;99.90;;;;;;5034815;28;20195;-86
2023/06/12 12:13:03;;;;;;;116.78;112.45;;;26.80;99.90;;;;;;5031033;28;20240;-88
2023/06/12 12:15:38;;;;;;;100.43;96.63;;;27.30;99.90;;;;;;5033311;28;20307;-89